PWSweather.com
Personal Weather Stations
Station Observations
WODONGA
Wodonga, WodongaAU 3690

WodongaWodongaAU 3690

Lat: -36.121, Lon: 146.87

Elevation: 541

Station Type: Weather Station

http://www.wodongaweather.net

High Low Average
Temperature 84.2°F29.0°F 52.7°F11.5°F 68.3°F20.2°F
Dew Point 44.0°F6.7°F 33.4°F0.8°F 38.7°F3.7°F
Winds 10.7 mph WSW17.2 mph WSW 0.1 mph 0.2 mph 5.0 mph 8.0 mph
Wind Gusts 18.3 mph29.5 mph 1.6 mph2.6 mph 8.0 mph12.9 mph
Humidity 59% 18% 36%
Pressure 29.76 in1007.80 in 29.63 in1003.40 in -
Precipitation 0.00 in0.00 in - -
Hour Temp Dew Point Humidity Winds Wind Gusts Pressure Precip Precip Rate Daily Precip Total
12:00 AM 61.9°F16.6°C 39.7°F4.3°C 44% 6.1 mph SSW9.8 kmh SSW 9.2 mph14.8 kmh 29.63 in1003.4 mb 0.00 in0.0 mm 0.00 in/hr0.0 mm/hr 0.00 in0.0 mm
12:05 AM 62.1°F16.7°C 40.5°F4.7°C 45% 6.6 mph SSW10.6 kmh SSW 10.7 mph17.2 kmh 29.63 in1003.4 mb 0.00 in0.0 mm 0.00 in/hr0.0 mm/hr 0.00 in0.0 mm
12:10 AM 61.5°F16.4°C 40.0°F4.4°C 45% 6.0 mph S9.7 kmh S 10.7 mph17.2 kmh 29.64 in1003.7 mb 0.00 in0.0 mm 0.00 in/hr0.0 mm/hr 0.00 in0.0 mm
12:15 AM 61.3°F16.3°C 39.8°F4.3°C 45% 5.5 mph SW8.9 kmh SW 8.3 mph13.4 kmh 29.63 in1003.4 mb 0.00 in0.0 mm 0.00 in/hr0.0 mm/hr 0.00 in0.0 mm
12:20 AM 61.2°F16.2°C 39.7°F4.3°C 45% 5.1 mph SW8.2 kmh SW 8.3 mph13.4 kmh 29.63 in1003.4 mb 0.00 in0.0 mm 0.00 in/hr0.0 mm/hr 0.00 in0.0 mm
12:25 AM 61.0°F16.1°C 39.5°F4.2°C 45% 3.8 mph SW6.1 kmh SW 6.0 mph9.7 kmh 29.63 in1003.4 mb 0.00 in0.0 mm 0.00 in/hr0.0 mm/hr 0.00 in0.0 mm
12:30 AM 60.8°F16.0°C 39.3°F4.1°C 45% 3.2 mph SW5.1 kmh SW 5.4 mph8.7 kmh 29.63 in1003.4 mb 0.00 in0.0 mm 0.00 in/hr0.0 mm/hr 0.00 in0.0 mm
12:35 AM 60.6°F15.9°C 39.2°F4.0°C 45% 4.1 mph WSW6.6 kmh WSW 10.7 mph17.2 kmh 29.63 in1003.4 mb 0.00 in0.0 mm 0.00 in/hr0.0 mm/hr 0.00 in0.0 mm
12:40 AM 60.4°F15.8°C 38.4°F3.6°C 44% 4.2 mph WSW6.8 kmh WSW 10.7 mph17.2 kmh 29.63 in1003.4 mb 0.00 in0.0 mm 0.00 in/hr0.0 mm/hr 0.00 in0.0 mm
12:45 AM 60.3°F15.7°C 38.8°F3.8°C 45% 4.5 mph SW7.2 kmh SW 9.2 mph14.8 kmh 29.63 in1003.4 mb 0.00 in0.0 mm 0.00 in/hr0.0 mm/hr 0.00 in0.0 mm
12:50 AM 59.9°F15.5°C 38.5°F3.6°C 45% 5.1 mph SW8.2 kmh SW 9.2 mph14.8 kmh 29.64 in1003.7 mb 0.00 in0.0 mm 0.00 in/hr0.0 mm/hr 0.00 in0.0 mm
12:55 AM 59.7°F15.4°C 38.4°F3.6°C 45% 4.5 mph S7.2 kmh S 6.9 mph11.1 kmh 29.64 in1003.7 mb 0.00 in0.0 mm 0.00 in/hr0.0 mm/hr 0.00 in0.0 mm
01:00 AM 59.5°F15.3°C 38.2°F3.4°C 45% 4.4 mph SSW7.1 kmh SSW 6.0 mph9.7 kmh 29.64 in1003.7 mb 0.00 in0.0 mm 0.00 in/hr0.0 mm/hr 0.00 in0.0 mm
01:05 AM 59.5°F15.3°C 38.2°F3.4°C 45% 4.0 mph WSW6.4 kmh WSW 6.0 mph9.7 kmh 29.65 in1004.1 mb 0.00 in0.0 mm 0.00 in/hr0.0 mm/hr 0.00 in0.0 mm
01:10 AM 59.4°F15.2°C 38.0°F3.3°C 45% 4.9 mph SW7.9 kmh SW 12.1 mph19.5 kmh 29.65 in1004.1 mb 0.00 in0.0 mm 0.00 in/hr0.0 mm/hr 0.00 in0.0 mm
01:15 AM 59.2°F15.1°C 37.9°F3.3°C 45% 5.7 mph SW9.2 kmh SW 12.1 mph19.5 kmh 29.65 in1004.1 mb 0.00 in0.0 mm 0.00 in/hr0.0 mm/hr 0.00 in0.0 mm
01:20 AM 59.0°F15.0°C 37.7°F3.2°C 45% 5.3 mph WSW8.5 kmh WSW 10.7 mph17.2 kmh 29.65 in1004.1 mb 0.00 in0.0 mm 0.00 in/hr0.0 mm/hr 0.00 in0.0 mm
01:25 AM 58.8°F14.9°C 37.5°F3.1°C 45% 6.0 mph W9.7 kmh W 10.7 mph17.2 kmh 29.64 in1003.7 mb 0.00 in0.0 mm 0.00 in/hr0.0 mm/hr 0.00 in0.0 mm
01:30 AM 58.5°F14.7°C 37.8°F3.2°C 46% 5.9 mph WNW9.5 kmh WNW 10.7 mph17.2 kmh 29.65 in1004.1 mb 0.00 in0.0 mm 0.00 in/hr0.0 mm/hr 0.00 in0.0 mm
01:35 AM 58.3°F14.6°C 37.6°F3.1°C 46% 5.9 mph W9.5 kmh W 9.8 mph15.8 kmh 29.65 in1004.1 mb 0.00 in0.0 mm 0.00 in/hr0.0 mm/hr 0.00 in0.0 mm
01:40 AM 58.1°F14.5°C 38.0°F3.3°C 47% 7.6 mph W12.2 kmh W 10.7 mph17.2 kmh 29.65 in1004.1 mb 0.00 in0.0 mm 0.00 in/hr0.0 mm/hr 0.00 in0.0 mm
01:45 AM 57.9°F14.4°C 38.4°F3.6°C 48% 7.7 mph W12.4 kmh W 10.7 mph17.2 kmh 29.65 in1004.1 mb 0.00 in0.0 mm 0.00 in/hr0.0 mm/hr 0.00 in0.0 mm
01:50 AM 57.7°F14.3°C 38.2°F3.4°C 48% 6.0 mph WSW9.7 kmh WSW 9.8 mph15.8 kmh 29.65 in1004.1 mb 0.00 in0.0 mm 0.00 in/hr0.0 mm/hr 0.00 in0.0 mm
01:55 AM 57.6°F14.2°C 38.6°F3.7°C 49% 5.8 mph WSW9.3 kmh WSW 9.8 mph15.8 kmh 29.65 in1004.1 mb 0.00 in0.0 mm 0.00 in/hr0.0 mm/hr 0.00 in0.0 mm
02:00 AM 57.4°F14.1°C 38.9°F3.8°C 50% 7.4 mph SW11.9 kmh SW 13.0 mph20.9 kmh 29.65 in1004.1 mb 0.00 in0.0 mm 0.00 in/hr0.0 mm/hr 0.00 in0.0 mm
02:05 AM 57.2°F14.0°C 38.7°F3.7°C 50% 8.2 mph SW13.2 kmh SW 13.0 mph20.9 kmh 29.65 in1004.1 mb 0.00 in0.0 mm 0.00 in/hr0.0 mm/hr 0.00 in0.0 mm
02:10 AM 57.0°F13.9°C 38.6°F3.7°C 50% 8.2 mph SW13.2 kmh SW 13.0 mph20.9 kmh 29.65 in1004.1 mb 0.00 in0.0 mm 0.00 in/hr0.0 mm/hr 0.00 in0.0 mm
02:15 AM 56.8°F13.8°C 38.4°F3.6°C 50% 8.1 mph NW13.0 kmh NW 11.4 mph18.3 kmh 29.65 in1004.1 mb 0.00 in0.0 mm 0.00 in/hr0.0 mm/hr 0.00 in0.0 mm
02:20 AM 56.7°F13.7°C 38.2°F3.4°C 50% 9.5 mph WSW15.3 kmh WSW 18.3 mph29.5 kmh 29.65 in1004.1 mb 0.00 in0.0 mm 0.00 in/hr0.0 mm/hr 0.00 in0.0 mm
02:25 AM 56.7°F13.7°C 38.2°F3.4°C 50% 10.7 mph WSW17.2 kmh WSW 18.3 mph29.5 kmh 29.65 in1004.1 mb 0.00 in0.0 mm 0.00 in/hr0.0 mm/hr 0.00 in0.0 mm
02:30 AM 56.5°F13.6°C 38.1°F3.4°C 50% 9.4 mph W15.1 kmh W 15.2 mph24.5 kmh 29.65 in1004.1 mb 0.00 in0.0 mm 0.00 in/hr0.0 mm/hr 0.00 in0.0 mm
02:35 AM 56.3°F13.5°C 37.9°F3.3°C 50% 8.6 mph W13.8 kmh W 13.0 mph20.9 kmh 29.65 in1004.1 mb 0.00 in0.0 mm 0.00 in/hr0.0 mm/hr 0.00 in0.0 mm
02:40 AM 56.1°F13.4°C 37.7°F3.2°C 50% 7.8 mph WSW12.6 kmh WSW 10.7 mph17.2 kmh 29.65 in1004.1 mb 0.00 in0.0 mm 0.00 in/hr0.0 mm/hr 0.00 in0.0 mm
02:45 AM 56.1°F13.4°C 37.7°F3.2°C 50% 7.3 mph WSW11.7 kmh WSW 10.7 mph17.2 kmh 29.66 in1004.4 mb 0.00 in0.0 mm 0.00 in/hr0.0 mm/hr 0.00 in0.0 mm
02:50 AM 55.9°F13.3°C 38.1°F3.4°C 51% 5.9 mph SW9.5 kmh SW 10.7 mph17.2 kmh 29.66 in1004.4 mb 0.00 in0.0 mm 0.00 in/hr0.0 mm/hr 0.00 in0.0 mm
02:55 AM 55.9°F13.3°C 38.1°F3.4°C 51% 6.1 mph SSW9.8 kmh SSW 13.0 mph20.9 kmh 29.66 in1004.4 mb 0.00 in0.0 mm 0.00 in/hr0.0 mm/hr 0.00 in0.0 mm
03:00 AM 55.8°F13.2°C 37.9°F3.3°C 51% 7.4 mph SW11.9 kmh SW 13.6 mph21.9 kmh 29.66 in1004.4 mb 0.00 in0.0 mm 0.00 in/hr0.0 mm/hr 0.00 in0.0 mm
03:05 AM 55.6°F13.1°C 38.2°F3.4°C 52% 5.8 mph W9.3 kmh W 13.6 mph21.9 kmh 29.66 in1004.4 mb 0.00 in0.0 mm 0.00 in/hr0.0 mm/hr 0.00 in0.0 mm
03:10 AM 55.4°F13.0°C 38.1°F3.4°C 52% 4.8 mph N7.7 kmh N 9.2 mph14.8 kmh 29.66 in1004.4 mb 0.00 in0.0 mm 0.00 in/hr0.0 mm/hr 0.00 in0.0 mm
03:15 AM 55.4°F13.0°C 38.1°F3.4°C 52% 6.2 mph N10.0 kmh N 10.7 mph17.2 kmh 29.66 in1004.4 mb 0.00 in0.0 mm 0.00 in/hr0.0 mm/hr 0.00 in0.0 mm
03:20 AM 55.2°F12.9°C 37.9°F3.3°C 52% 6.7 mph S10.8 kmh S 10.7 mph17.2 kmh 29.66 in1004.4 mb 0.00 in0.0 mm 0.00 in/hr0.0 mm/hr 0.00 in0.0 mm
03:25 AM 55.0°F12.8°C 37.7°F3.2°C 52% 6.9 mph SW11.1 kmh SW 9.8 mph15.8 kmh 29.66 in1004.4 mb 0.00 in0.0 mm 0.00 in/hr0.0 mm/hr 0.00 in0.0 mm
03:30 AM 54.9°F12.7°C 38.1°F3.4°C 53% 6.9 mph NW11.1 kmh NW 9.8 mph15.8 kmh 29.66 in1004.4 mb 0.00 in0.0 mm 0.00 in/hr0.0 mm/hr 0.00 in0.0 mm
03:35 AM 54.9°F12.7°C 38.1°F3.4°C 53% 6.3 mph WSW10.1 kmh WSW 8.3 mph13.4 kmh 29.66 in1004.4 mb 0.00 in0.0 mm 0.00 in/hr0.0 mm/hr 0.00 in0.0 mm
03:40 AM 54.7°F12.6°C 37.9°F3.3°C 53% 5.0 mph WSW8.0 kmh WSW 8.3 mph13.4 kmh 29.66 in1004.4 mb 0.00 in0.0 mm 0.00 in/hr0.0 mm/hr 0.00 in0.0 mm
03:45 AM 54.5°F12.5°C 38.2°F3.4°C 54% 5.0 mph WSW8.0 kmh WSW 9.2 mph14.8 kmh 29.66 in1004.4 mb 0.00 in0.0 mm 0.00 in/hr0.0 mm/hr 0.00 in0.0 mm
03:50 AM 54.1°F12.3°C 37.9°F3.3°C 54% 5.9 mph W9.5 kmh W 9.2 mph14.8 kmh 29.66 in1004.4 mb 0.00 in0.0 mm 0.00 in/hr0.0 mm/hr 0.00 in0.0 mm
03:55 AM 54.0°F12.2°C 38.2°F3.4°C 55% 4.7 mph WSW7.6 kmh WSW 9.2 mph14.8 kmh 29.66 in1004.4 mb 0.00 in0.0 mm 0.00 in/hr0.0 mm/hr 0.00 in0.0 mm
04:00 AM 53.8°F12.1°C 38.0°F3.3°C 55% 4.8 mph WSW7.7 kmh WSW 8.3 mph13.4 kmh 29.66 in1004.4 mb 0.00 in0.0 mm 0.00 in/hr0.0 mm/hr 0.00 in0.0 mm
04:05 AM 53.8°F12.1°C 38.0°F3.3°C 55% 5.3 mph WNW8.5 kmh WNW 8.3 mph13.4 kmh 29.66 in1004.4 mb 0.00 in0.0 mm 0.00 in/hr0.0 mm/hr 0.00 in0.0 mm
04:10 AM 54.0°F12.2°C 38.2°F3.4°C 55% 6.0 mph WNW9.7 kmh WNW 10.7 mph17.2 kmh 29.66 in1004.4 mb 0.00 in0.0 mm 0.00 in/hr0.0 mm/hr 0.00 in0.0 mm
04:15 AM 53.8°F12.1°C 38.0°F3.3°C 55% 6.2 mph SW10.0 kmh SW 10.7 mph17.2 kmh 29.67 in1004.7 mb 0.00 in0.0 mm 0.00 in/hr0.0 mm/hr 0.00 in0.0 mm
04:20 AM 53.8°F12.1°C 38.5°F3.6°C 56% 6.1 mph SSW9.8 kmh SSW 9.2 mph14.8 kmh 29.67 in1004.7 mb 0.00 in0.0 mm 0.00 in/hr0.0 mm/hr 0.00 in0.0 mm
04:25 AM 53.6°F12.0°C 38.3°F3.5°C 56% 7.4 mph WNW11.9 kmh WNW 10.7 mph17.2 kmh 29.67 in1004.7 mb 0.00 in0.0 mm 0.00 in/hr0.0 mm/hr 0.00 in0.0 mm
04:30 AM 53.4°F11.9°C 38.1°F3.4°C 56% 7.8 mph W12.6 kmh W 10.7 mph17.2 kmh 29.68 in1005.1 mb 0.00 in0.0 mm 0.00 in/hr0.0 mm/hr 0.00 in0.0 mm
04:35 AM 53.2°F11.8°C 38.0°F3.3°C 56% 6.8 mph WSW10.9 kmh WSW 9.8 mph15.8 kmh 29.68 in1005.1 mb 0.00 in0.0 mm 0.00 in/hr0.0 mm/hr 0.00 in0.0 mm
04:40 AM 53.1°F11.7°C 38.2°F3.4°C 57% 5.7 mph SSE9.2 kmh SSE 9.2 mph14.8 kmh 29.68 in1005.1 mb 0.00 in0.0 mm 0.00 in/hr0.0 mm/hr 0.00 in0.0 mm
04:45 AM 53.1°F11.7°C 38.2°F3.4°C 57% 4.9 mph WSW7.9 kmh WSW 7.6 mph12.2 kmh 29.68 in1005.1 mb 0.00 in0.0 mm 0.00 in/hr0.0 mm/hr 0.00 in0.0 mm
04:50 AM 53.1°F11.7°C 38.2°F3.4°C 57% 5.5 mph NW8.9 kmh NW 8.3 mph13.4 kmh 29.68 in1005.1 mb 0.00 in0.0 mm 0.00 in/hr0.0 mm/hr 0.00 in0.0 mm
04:55 AM 53.1°F11.7°C 38.2°F3.4°C 57% 6.5 mph SSW10.5 kmh SSW 12.1 mph19.5 kmh 29.68 in1005.1 mb 0.00 in0.0 mm 0.00 in/hr0.0 mm/hr 0.00 in0.0 mm
05:00 AM 52.9°F11.6°C 38.5°F3.6°C 58% 6.6 mph SSW10.6 kmh SSW 12.1 mph19.5 kmh 29.68 in1005.1 mb 0.00 in0.0 mm 0.00 in/hr0.0 mm/hr 0.00 in0.0 mm
05:05 AM 52.7°F11.5°C 38.3°F3.5°C 58% 6.7 mph SW10.8 kmh SW 8.3 mph13.4 kmh 29.68 in1005.1 mb 0.00 in0.0 mm 0.00 in/hr0.0 mm/hr 0.00 in0.0 mm
05:10 AM 52.7°F11.5°C 38.3°F3.5°C 58% 6.8 mph SW10.9 kmh SW 8.3 mph13.4 kmh 29.68 in1005.1 mb 0.00 in0.0 mm 0.00 in/hr0.0 mm/hr 0.00 in0.0 mm
05:15 AM 52.7°F11.5°C 38.3°F3.5°C 58% 6.1 mph SW9.8 kmh SW 8.3 mph13.4 kmh 29.68 in1005.1 mb 0.00 in0.0 mm 0.00 in/hr0.0 mm/hr 0.00 in0.0 mm
05:20 AM 52.7°F11.5°C 38.3°F3.5°C 58% 5.8 mph WSW9.3 kmh WSW 8.3 mph13.4 kmh 29.68 in1005.1 mb 0.00 in0.0 mm 0.00 in/hr0.0 mm/hr 0.00 in0.0 mm
05:25 AM 52.9°F11.6°C 39.0°F3.9°C 59% 5.7 mph WSW9.2 kmh WSW 7.6 mph12.2 kmh 29.69 in1005.4 mb 0.00 in0.0 mm 0.00 in/hr0.0 mm/hr 0.00 in0.0 mm
05:30 AM 52.9°F11.6°C 38.5°F3.6°C 58% 6.1 mph SW9.8 kmh SW 10.7 mph17.2 kmh 29.69 in1005.4 mb 0.00 in0.0 mm 0.00 in/hr0.0 mm/hr 0.00 in0.0 mm
05:35 AM 53.4°F11.9°C 39.0°F3.9°C 58% 5.6 mph S9.0 kmh S 10.7 mph17.2 kmh 29.70 in1005.8 mb 0.00 in0.0 mm 0.00 in/hr0.0 mm/hr 0.00 in0.0 mm
05:40 AM 53.6°F12.0°C 38.7°F3.7°C 57% 3.9 mph N6.3 kmh N 7.6 mph12.2 kmh 29.70 in1005.8 mb 0.00 in0.0 mm 0.00 in/hr0.0 mm/hr 0.00 in0.0 mm
05:45 AM 53.6°F12.0°C 39.2°F4.0°C 58% 3.7 mph NNW6.0 kmh NNW 7.6 mph12.2 kmh 29.70 in1005.8 mb 0.00 in0.0 mm 0.00 in/hr0.0 mm/hr 0.00 in0.0 mm
05:50 AM 53.6°F12.0°C 39.2°F4.0°C 58% 4.4 mph N7.1 kmh N 7.6 mph12.2 kmh 29.71 in1006.1 mb 0.00 in0.0 mm 0.00 in/hr0.0 mm/hr 0.00 in0.0 mm
05:55 AM 53.8°F12.1°C 39.4°F4.1°C 58% 5.3 mph N8.5 kmh N 8.3 mph13.4 kmh 29.71 in1006.1 mb 0.00 in0.0 mm 0.00 in/hr0.0 mm/hr 0.00 in0.0 mm
06:00 AM 54.0°F12.2°C 39.5°F4.2°C 58% 4.5 mph N7.2 kmh N 8.3 mph13.4 kmh 29.71 in1006.1 mb 0.00 in0.0 mm 0.00 in/hr0.0 mm/hr 0.00 in0.0 mm
06:05 AM 54.1°F12.3°C 39.7°F4.3°C 58% 3.4 mph NNW5.5 kmh NNW 5.4 mph8.7 kmh 29.72 in1006.4 mb 0.00 in0.0 mm 0.00 in/hr0.0 mm/hr 0.00 in0.0 mm
06:10 AM 54.3°F12.4°C 39.9°F4.4°C 58% 3.2 mph N5.1 kmh N 5.4 mph8.7 kmh 29.72 in1006.4 mb 0.00 in0.0 mm 0.00 in/hr0.0 mm/hr 0.00 in0.0 mm
06:15 AM 54.9°F12.7°C 39.9°F4.4°C 57% 3.0 mph N4.8 kmh N 4.5 mph7.2 kmh 29.73 in1006.8 mb 0.00 in0.0 mm 0.00 in/hr0.0 mm/hr 0.00 in0.0 mm
06:20 AM 55.0°F12.8°C 40.1°F4.5°C 57% 2.5 mph NNE4.0 kmh NNE 4.5 mph7.2 kmh 29.72 in1006.4 mb 0.00 in0.0 mm 0.00 in/hr0.0 mm/hr 0.00 in0.0 mm
06:25 AM 55.2°F12.9°C 39.8°F4.3°C 56% 2.2 mph NE3.5 kmh NE 3.8 mph6.1 kmh 29.73 in1006.8 mb 0.00 in0.0 mm 0.00 in/hr0.0 mm/hr 0.00 in0.0 mm
06:30 AM 55.6°F13.1°C 40.1°F4.5°C 56% 2.3 mph N3.7 kmh N 3.8 mph6.1 kmh 29.73 in1006.8 mb 0.00 in0.0 mm 0.00 in/hr0.0 mm/hr 0.00 in0.0 mm
06:35 AM 56.1°F13.4°C 40.6°F4.8°C 56% 2.4 mph NE3.9 kmh NE 4.5 mph7.2 kmh 29.73 in1006.8 mb 0.00 in0.0 mm 0.00 in/hr0.0 mm/hr 0.00 in0.0 mm
06:40 AM 56.3°F13.5°C 40.4°F4.7°C 55% 2.7 mph NNE4.3 kmh NNE 4.5 mph7.2 kmh 29.73 in1006.8 mb 0.00 in0.0 mm 0.00 in/hr0.0 mm/hr 0.00 in0.0 mm
06:50 AM 57.2°F14.0°C 40.7°F4.8°C 54% 2.3 mph N3.7 kmh N 4.5 mph7.2 kmh 29.73 in1006.8 mb 0.00 in0.0 mm 0.00 in/hr0.0 mm/hr 0.00 in0.0 mm
06:55 AM 57.9°F14.4°C 40.9°F4.9°C 53% 1.9 mph WSW3.1 kmh WSW 5.4 mph8.7 kmh 29.74 in1007.1 mb 0.00 in0.0 mm 0.00 in/hr0.0 mm/hr 0.00 in0.0 mm
07:00 AM 58.3°F14.6°C 40.7°F4.8°C 52% 2.9 mph W4.7 kmh W 5.4 mph8.7 kmh 29.74 in1007.1 mb 0.00 in0.0 mm 0.00 in/hr0.0 mm/hr 0.00 in0.0 mm
07:05 AM 58.8°F14.9°C 41.2°F5.1°C 52% 3.4 mph SW5.5 kmh SW 5.4 mph8.7 kmh 29.74 in1007.1 mb 0.00 in0.0 mm 0.00 in/hr0.0 mm/hr 0.00 in0.0 mm
07:10 AM 59.4°F15.2°C 41.2°F5.1°C 51% 3.4 mph SW5.5 kmh SW 5.4 mph8.7 kmh 29.74 in1007.1 mb 0.00 in0.0 mm 0.00 in/hr0.0 mm/hr 0.00 in0.0 mm
07:15 AM 59.9°F15.5°C 41.2°F5.1°C 50% 3.6 mph SSW5.8 kmh SSW 6.9 mph11.1 kmh 29.74 in1007.1 mb 0.00 in0.0 mm 0.00 in/hr0.0 mm/hr 0.00 in0.0 mm
07:20 AM 60.6°F15.9°C 41.4°F5.2°C 49% 4.3 mph WSW6.9 kmh WSW 6.9 mph11.1 kmh 29.75 in1007.5 mb 0.00 in0.0 mm 0.00 in/hr0.0 mm/hr 0.00 in0.0 mm
07:25 AM 61.2°F16.2°C 41.9°F5.5°C 49% 3.9 mph W6.3 kmh W 7.6 mph12.2 kmh 29.74 in1007.1 mb 0.00 in0.0 mm 0.00 in/hr0.0 mm/hr 0.00 in0.0 mm
07:30 AM 61.5°F16.4°C 41.7°F5.4°C 48% 4.7 mph WNW7.6 kmh WNW 8.3 mph13.4 kmh 29.75 in1007.5 mb 0.00 in0.0 mm 0.00 in/hr0.0 mm/hr 0.00 in0.0 mm
07:35 AM 62.1°F16.7°C 42.2°F5.7°C 48% 4.9 mph WSW7.9 kmh WSW 8.3 mph13.4 kmh 29.75 in1007.5 mb 0.00 in0.0 mm 0.00 in/hr0.0 mm/hr 0.00 in0.0 mm
07:40 AM 62.1°F16.7°C 41.6°F5.3°C 47% 4.9 mph W7.9 kmh W 8.3 mph13.4 kmh 29.75 in1007.5 mb 0.00 in0.0 mm 0.00 in/hr0.0 mm/hr 0.00 in0.0 mm
07:45 AM 62.4°F16.9°C 41.4°F5.2°C 46% 5.4 mph WNW8.7 kmh WNW 9.2 mph14.8 kmh 29.75 in1007.5 mb 0.00 in0.0 mm 0.00 in/hr0.0 mm/hr 0.00 in0.0 mm
07:50 AM 62.2°F16.8°C 41.8°F5.4°C 47% 5.3 mph WNW8.5 kmh WNW 9.2 mph14.8 kmh 29.75 in1007.5 mb 0.00 in0.0 mm 0.00 in/hr0.0 mm/hr 0.00 in0.0 mm
07:55 AM 62.8°F17.1°C 42.3°F5.7°C 47% 7.1 mph W11.4 kmh W 9.8 mph15.8 kmh 29.75 in1007.5 mb 0.00 in0.0 mm 0.00 in/hr0.0 mm/hr 0.00 in0.0 mm
08:00 AM 63.7°F17.6°C 42.5°F5.8°C 46% 7.4 mph WNW11.9 kmh WNW 9.8 mph15.8 kmh 29.75 in1007.5 mb 0.00 in0.0 mm 0.00 in/hr0.0 mm/hr 0.00 in0.0 mm
08:05 AM 63.7°F17.6°C 42.5°F5.8°C 46% 6.8 mph WNW10.9 kmh WNW 9.8 mph15.8 kmh 29.75 in1007.5 mb 0.00 in0.0 mm 0.00 in/hr0.0 mm/hr 0.00 in0.0 mm
08:10 AM 64.0°F17.8°C 42.3°F5.7°C 45% 7.5 mph W12.1 kmh W 9.8 mph15.8 kmh 29.75 in1007.5 mb 0.00 in0.0 mm 0.00 in/hr0.0 mm/hr 0.00 in0.0 mm
08:15 AM 64.8°F18.2°C 42.9°F6.1°C 45% 7.9 mph WNW12.7 kmh WNW 11.4 mph18.3 kmh 29.75 in1007.5 mb 0.00 in0.0 mm 0.00 in/hr0.0 mm/hr 0.00 in0.0 mm
08:20 AM 65.3°F18.5°C 42.8°F6.0°C 44% 6.5 mph WNW10.5 kmh WNW 11.4 mph18.3 kmh 29.74 in1007.1 mb 0.00 in0.0 mm 0.00 in/hr0.0 mm/hr 0.00 in0.0 mm
08:25 AM 66.6°F19.2°C 44.0°F6.7°C 44% 4.5 mph WSW7.2 kmh WSW 6.9 mph11.1 kmh 29.74 in1007.1 mb 0.00 in0.0 mm 0.00 in/hr0.0 mm/hr 0.00 in0.0 mm
08:30 AM 66.9°F19.4°C 43.1°F6.2°C 42% 4.7 mph WSW7.6 kmh WSW 6.0 mph9.7 kmh 29.75 in1007.5 mb 0.00 in0.0 mm 0.00 in/hr0.0 mm/hr 0.00 in0.0 mm
08:35 AM 66.7°F19.3°C 42.9°F6.1°C 42% 5.5 mph W8.9 kmh W 6.9 mph11.1 kmh 29.75 in1007.5 mb 0.00 in0.0 mm 0.00 in/hr0.0 mm/hr 0.00 in0.0 mm
08:40 AM 67.1°F19.5°C 43.3°F6.3°C 42% 5.6 mph WNW9.0 kmh WNW 7.6 mph12.2 kmh 29.74 in1007.1 mb 0.00 in0.0 mm 0.00 in/hr0.0 mm/hr 0.00 in0.0 mm
08:45 AM 66.9°F19.4°C 43.7°F6.5°C 43% 5.9 mph NW9.5 kmh NW 7.6 mph12.2 kmh 29.75 in1007.5 mb 0.00 in0.0 mm 0.00 in/hr0.0 mm/hr 0.00 in0.0 mm
08:50 AM 67.3°F19.6°C 42.8°F6.0°C 41% 6.8 mph NW10.9 kmh NW 9.2 mph14.8 kmh 29.75 in1007.5 mb 0.00 in0.0 mm 0.00 in/hr0.0 mm/hr 0.00 in0.0 mm
08:55 AM 67.1°F19.5°C 43.3°F6.3°C 42% 5.4 mph NNW8.7 kmh NNW 9.2 mph14.8 kmh 29.75 in1007.5 mb 0.00 in0.0 mm 0.00 in/hr0.0 mm/hr 0.00 in0.0 mm
09:00 AM 68.0°F20.0°C 42.1°F5.6°C 39% 4.7 mph NW7.6 kmh NW 7.6 mph12.2 kmh 29.75 in1007.5 mb 0.00 in0.0 mm 0.00 in/hr0.0 mm/hr 0.00 in0.0 mm
09:05 AM 68.9°F20.5°C 42.9°F6.1°C 39% 5.4 mph W8.7 kmh W 7.6 mph12.2 kmh 29.75 in1007.5 mb 0.00 in0.0 mm 0.00 in/hr0.0 mm/hr 0.00 in0.0 mm
09:10 AM 70.0°F21.1°C 43.2°F6.2°C 38% 4.9 mph SW7.9 kmh SW 6.9 mph11.1 kmh 29.75 in1007.5 mb 0.00 in0.0 mm 0.00 in/hr0.0 mm/hr 0.00 in0.0 mm
09:15 AM 70.9°F21.6°C 44.0°F6.7°C 38% 4.3 mph SSW6.9 kmh SSW 6.9 mph11.1 kmh 29.75 in1007.5 mb 0.00 in0.0 mm 0.00 in/hr0.0 mm/hr 0.00 in0.0 mm
09:20 AM 71.6°F22.0°C 43.3°F6.3°C 36% 3.8 mph S6.1 kmh S 6.9 mph11.1 kmh 29.75 in1007.5 mb 0.00 in0.0 mm 0.00 in/hr0.0 mm/hr 0.00 in0.0 mm
09:25 AM 70.9°F21.6°C 43.3°F6.3°C 37% 4.0 mph NW6.4 kmh NW 7.6 mph12.2 kmh 29.75 in1007.5 mb 0.00 in0.0 mm 0.00 in/hr0.0 mm/hr 0.00 in0.0 mm
09:30 AM 70.9°F21.6°C 41.9°F5.5°C 35% 4.2 mph NW6.8 kmh NW 7.6 mph12.2 kmh 29.75 in1007.5 mb 0.00 in0.0 mm 0.00 in/hr0.0 mm/hr 0.00 in0.0 mm
09:35 AM 71.6°F22.0°C 43.3°F6.3°C 36% 4.3 mph NNE6.9 kmh NNE 7.6 mph12.2 kmh 29.75 in1007.5 mb 0.00 in0.0 mm 0.00 in/hr0.0 mm/hr 0.00 in0.0 mm
09:40 AM 72.1°F22.3°C 43.0°F6.1°C 35% 3.7 mph E6.0 kmh E 5.4 mph8.7 kmh 29.75 in1007.5 mb 0.00 in0.0 mm 0.00 in/hr0.0 mm/hr 0.00 in0.0 mm
09:45 AM 73.0°F22.8°C 43.8°F6.6°C 35% 3.2 mph SW5.1 kmh SW 5.4 mph8.7 kmh 29.75 in1007.5 mb 0.00 in0.0 mm 0.00 in/hr0.0 mm/hr 0.00 in0.0 mm
09:50 AM 73.0°F22.8°C 43.8°F6.6°C 35% 4.1 mph WSW6.6 kmh WSW 6.0 mph9.7 kmh 29.75 in1007.5 mb 0.00 in0.0 mm 0.00 in/hr0.0 mm/hr 0.00 in0.0 mm
09:55 AM 73.9°F23.3°C 43.8°F6.6°C 34% 4.4 mph WNW7.1 kmh WNW 6.0 mph9.7 kmh 29.75 in1007.5 mb 0.00 in0.0 mm 0.00 in/hr0.0 mm/hr 0.00 in0.0 mm
10:00 AM 74.3°F23.5°C 41.7°F5.4°C 31% 4.6 mph W7.4 kmh W 6.9 mph11.1 kmh 29.75 in1007.5 mb 0.00 in0.0 mm 0.00 in/hr0.0 mm/hr 0.00 in0.0 mm
10:05 AM 73.4°F23.0°C 41.8°F5.4°C 32% 5.8 mph WNW9.3 kmh WNW 9.8 mph15.8 kmh 29.75 in1007.5 mb 0.00 in0.0 mm 0.00 in/hr0.0 mm/hr 0.00 in0.0 mm
10:10 AM 72.7°F22.6°C 40.3°F4.6°C 31% 6.6 mph NW10.6 kmh NW 9.8 mph15.8 kmh 29.75 in1007.5 mb 0.00 in0.0 mm 0.00 in/hr0.0 mm/hr 0.00 in0.0 mm
10:15 AM 73.2°F22.9°C 40.0°F4.4°C 30% 5.7 mph WNW9.2 kmh WNW 9.8 mph15.8 kmh 29.75 in1007.5 mb 0.00 in0.0 mm 0.00 in/hr0.0 mm/hr 0.00 in0.0 mm
10:20 AM 73.8°F23.2°C 36.8°F2.7°C 26% 6.0 mph W9.7 kmh W 9.8 mph15.8 kmh 29.75 in1007.5 mb 0.00 in0.0 mm 0.00 in/hr0.0 mm/hr 0.00 in0.0 mm
10:25 AM 73.4°F23.0°C 38.3°F3.5°C 28% 6.6 mph W10.6 kmh W 9.8 mph15.8 kmh 29.75 in1007.5 mb 0.00 in0.0 mm 0.00 in/hr0.0 mm/hr 0.00 in0.0 mm
10:30 AM 74.1°F23.4°C 39.0°F3.9°C 28% 6.3 mph WSW10.1 kmh WSW 10.7 mph17.2 kmh 29.76 in1007.8 mb 0.00 in0.0 mm 0.00 in/hr0.0 mm/hr 0.00 in0.0 mm
10:35 AM 75.4°F24.1°C 36.1°F2.3°C 24% 5.5 mph WSW8.9 kmh WSW 10.7 mph17.2 kmh 29.75 in1007.5 mb 0.00 in0.0 mm 0.00 in/hr0.0 mm/hr 0.00 in0.0 mm
10:40 AM 76.5°F24.7°C 40.0°F4.4°C 27% 4.3 mph WSW6.9 kmh WSW 8.3 mph13.4 kmh 29.75 in1007.5 mb 0.00 in0.0 mm 0.00 in/hr0.0 mm/hr 0.00 in0.0 mm
10:45 AM 77.5°F25.3°C 39.0°F3.9°C 25% 5.3 mph SSW8.5 kmh SSW 9.8 mph15.8 kmh 29.75 in1007.5 mb 0.00 in0.0 mm 0.00 in/hr0.0 mm/hr 0.00 in0.0 mm
10:50 AM 77.7°F25.4°C 39.1°F3.9°C 25% 5.6 mph SW9.0 kmh SW 9.8 mph15.8 kmh 29.75 in1007.5 mb 0.00 in0.0 mm 0.00 in/hr0.0 mm/hr 0.00 in0.0 mm
10:55 AM 77.4°F25.2°C 35.6°F2.0°C 22% 6.9 mph WSW11.1 kmh WSW 12.1 mph19.5 kmh 29.75 in1007.5 mb 0.00 in0.0 mm 0.00 in/hr0.0 mm/hr 0.00 in0.0 mm
11:00 AM 76.6°F24.8°C 35.0°F1.7°C 22% 8.3 mph W13.4 kmh W 12.1 mph19.5 kmh 29.75 in1007.5 mb 0.00 in0.0 mm 0.00 in/hr0.0 mm/hr 0.00 in0.0 mm
11:05 AM 77.2°F25.1°C 37.6°F3.1°C 24% 7.2 mph W11.6 kmh W 9.2 mph14.8 kmh 29.75 in1007.5 mb 0.00 in0.0 mm 0.00 in/hr0.0 mm/hr 0.00 in0.0 mm
11:10 AM 77.5°F25.3°C 36.9°F2.7°C 23% 5.8 mph W9.3 kmh W 9.2 mph14.8 kmh 29.75 in1007.5 mb 0.00 in0.0 mm 0.00 in/hr0.0 mm/hr 0.00 in0.0 mm
11:15 AM 77.7°F25.4°C 38.1°F3.4°C 24% 4.4 mph W7.1 kmh W 6.0 mph9.7 kmh 29.75 in1007.5 mb 0.00 in0.0 mm 0.00 in/hr0.0 mm/hr 0.00 in0.0 mm
11:20 AM 78.3°F25.7°C 39.6°F4.2°C 25% 4.4 mph W7.1 kmh W 9.2 mph14.8 kmh 29.75 in1007.5 mb 0.00 in0.0 mm 0.00 in/hr0.0 mm/hr 0.00 in0.0 mm
11:25 AM 79.0°F26.1°C 38.1°F3.4°C 23% 6.0 mph WSW9.7 kmh WSW 11.4 mph18.3 kmh 29.75 in1007.5 mb 0.00 in0.0 mm 0.00 in/hr0.0 mm/hr 0.00 in0.0 mm
11:30 AM 79.3°F26.3°C 34.8°F1.6°C 20% 6.3 mph SW10.1 kmh SW 11.4 mph18.3 kmh 29.75 in1007.5 mb 0.00 in0.0 mm 0.00 in/hr0.0 mm/hr 0.00 in0.0 mm
11:35 AM 79.2°F26.2°C 33.4°F0.8°C 19% 5.9 mph W9.5 kmh W 9.2 mph14.8 kmh 29.75 in1007.5 mb 0.00 in0.0 mm 0.00 in/hr0.0 mm/hr 0.00 in0.0 mm
11:40 AM 79.0°F26.1°C 36.9°F2.7°C 22% 5.9 mph NW9.5 kmh NW 9.2 mph14.8 kmh 29.75 in1007.5 mb 0.00 in0.0 mm 0.00 in/hr0.0 mm/hr 0.00 in0.0 mm
11:45 AM 79.0°F26.1°C 35.8°F2.1°C 21% 6.0 mph W9.7 kmh W 9.2 mph14.8 kmh 29.74 in1007.1 mb 0.00 in0.0 mm 0.00 in/hr0.0 mm/hr 0.00 in0.0 mm
11:50 AM 79.7°F26.5°C 35.1°F1.7°C 20% 7.2 mph WSW11.6 kmh WSW 11.4 mph18.3 kmh 29.74 in1007.1 mb 0.00 in0.0 mm 0.00 in/hr0.0 mm/hr 0.00 in0.0 mm
11:55 AM 79.0°F26.1°C 35.8°F2.1°C 21% 7.8 mph W12.6 kmh W 11.4 mph18.3 kmh 29.74 in1007.1 mb 0.00 in0.0 mm 0.00 in/hr0.0 mm/hr 0.00 in0.0 mm
12:00 PM 78.8°F26.0°C 36.8°F2.7°C 22% 7.9 mph W12.7 kmh W 10.7 mph17.2 kmh 29.74 in1007.1 mb 0.00 in0.0 mm 0.00 in/hr0.0 mm/hr 0.00 in0.0 mm
12:05 PM 79.2°F26.2°C 38.2°F3.4°C 23% 8.5 mph W13.7 kmh W 11.4 mph18.3 kmh 29.73 in1006.8 mb 0.00 in0.0 mm 0.00 in/hr0.0 mm/hr 0.00 in0.0 mm
12:10 PM 79.9°F26.6°C 37.7°F3.2°C 22% 7.8 mph W12.6 kmh W 11.4 mph18.3 kmh 29.74 in1007.1 mb 0.00 in0.0 mm 0.00 in/hr0.0 mm/hr 0.00 in0.0 mm
12:15 PM 80.4°F26.9°C 40.4°F4.7°C 24% 5.7 mph WSW9.2 kmh WSW 8.3 mph13.4 kmh 29.74 in1007.1 mb 0.00 in0.0 mm 0.00 in/hr0.0 mm/hr 0.00 in0.0 mm
12:20 PM 81.1°F27.3°C 39.9°F4.4°C 23% 4.9 mph SW7.9 kmh SW 9.2 mph14.8 kmh 29.74 in1007.1 mb 0.00 in0.0 mm 0.00 in/hr0.0 mm/hr 0.00 in0.0 mm
12:25 PM 81.0°F27.2°C 38.6°F3.7°C 22% 5.5 mph W8.9 kmh W 9.2 mph14.8 kmh 29.73 in1006.8 mb 0.00 in0.0 mm 0.00 in/hr0.0 mm/hr 0.00 in0.0 mm
12:30 PM 80.6°F27.0°C 40.5°F4.7°C 24% 6.2 mph WNW10.0 kmh WNW 9.2 mph14.8 kmh 29.73 in1006.8 mb 0.00 in0.0 mm 0.00 in/hr0.0 mm/hr 0.00 in0.0 mm
12:35 PM 80.8°F27.1°C 39.6°F4.2°C 23% 6.4 mph WNW10.3 kmh WNW 9.8 mph15.8 kmh 29.73 in1006.8 mb 0.00 in0.0 mm 0.00 in/hr0.0 mm/hr 0.00 in0.0 mm
12:40 PM 79.7°F26.5°C 39.8°F4.3°C 24% 7.6 mph NW12.2 kmh NW 10.7 mph17.2 kmh 29.73 in1006.8 mb 0.00 in0.0 mm 0.00 in/hr0.0 mm/hr 0.00 in0.0 mm
12:45 PM 79.3°F26.3°C 38.4°F3.6°C 23% 9.9 mph WNW15.9 kmh WNW 13.6 mph21.9 kmh 29.73 in1006.8 mb 0.00 in0.0 mm 0.00 in/hr0.0 mm/hr 0.00 in0.0 mm
12:50 PM 80.2°F26.8°C 41.3°F5.2°C 25% 8.3 mph WSW13.4 kmh WSW 13.6 mph21.9 kmh 29.73 in1006.8 mb 0.00 in0.0 mm 0.00 in/hr0.0 mm/hr 0.00 in0.0 mm
12:55 PM 81.0°F27.2°C 39.7°F4.3°C 23% 5.9 mph WSW9.5 kmh WSW 13.6 mph21.9 kmh 29.73 in1006.8 mb 0.00 in0.0 mm 0.00 in/hr0.0 mm/hr 0.00 in0.0 mm
01:00 PM 80.2°F26.8°C 39.1°F3.9°C 23% 7.0 mph WNW11.3 kmh WNW 13.6 mph21.9 kmh 29.73 in1006.8 mb 0.00 in0.0 mm 0.00 in/hr0.0 mm/hr 0.00 in0.0 mm
01:05 PM 80.4°F26.9°C 40.4°F4.7°C 24% 8.1 mph NW13.0 kmh NW 10.7 mph17.2 kmh 29.73 in1006.8 mb 0.00 in0.0 mm 0.00 in/hr0.0 mm/hr 0.00 in0.0 mm
01:10 PM 79.9°F26.6°C 41.0°F5.0°C 25% 8.2 mph NW13.2 kmh NW 10.7 mph17.2 kmh 29.72 in1006.4 mb 0.00 in0.0 mm 0.00 in/hr0.0 mm/hr 0.00 in0.0 mm
01:15 PM 80.1°F26.7°C 39.0°F3.9°C 23% 7.3 mph NW11.7 kmh NW 10.7 mph17.2 kmh 29.72 in1006.4 mb 0.00 in0.0 mm 0.00 in/hr0.0 mm/hr 0.00 in0.0 mm
01:20 PM 81.1°F27.3°C 42.0°F5.6°C 25% 5.8 mph W9.3 kmh W 9.2 mph14.8 kmh 29.72 in1006.4 mb 0.00 in0.0 mm 0.00 in/hr0.0 mm/hr 0.00 in0.0 mm
01:25 PM 81.1°F27.3°C 39.9°F4.4°C 23% 6.4 mph WSW10.3 kmh WSW 11.4 mph18.3 kmh 29.72 in1006.4 mb 0.00 in0.0 mm 0.00 in/hr0.0 mm/hr 0.00 in0.0 mm
01:30 PM 81.3°F27.4°C 40.0°F4.4°C 23% 8.1 mph WSW13.0 kmh WSW 13.6 mph21.9 kmh 29.72 in1006.4 mb 0.00 in0.0 mm 0.00 in/hr0.0 mm/hr 0.00 in0.0 mm
01:35 PM 82.2°F27.9°C 41.9°F5.5°C 24% 6.3 mph WSW10.1 kmh WSW 13.6 mph21.9 kmh 29.72 in1006.4 mb 0.00 in0.0 mm 0.00 in/hr0.0 mm/hr 0.00 in0.0 mm
01:40 PM 82.0°F27.8°C 39.5°F4.2°C 22% 5.3 mph WNW8.5 kmh WNW 13.0 mph20.9 kmh 29.72 in1006.4 mb 0.00 in0.0 mm 0.00 in/hr0.0 mm/hr 0.00 in0.0 mm
01:45 PM 82.0°F27.8°C 40.6°F4.8°C 23% 6.3 mph WNW10.1 kmh WNW 13.0 mph20.9 kmh 29.71 in1006.1 mb 0.00 in0.0 mm 0.00 in/hr0.0 mm/hr 0.00 in0.0 mm
01:50 PM 81.7°F27.6°C 40.3°F4.6°C 23% 6.5 mph WNW10.5 kmh WNW 9.2 mph14.8 kmh 29.72 in1006.4 mb 0.00 in0.0 mm 0.00 in/hr0.0 mm/hr 0.00 in0.0 mm
01:55 PM 81.5°F27.5°C 41.3°F5.2°C 24% 6.0 mph W9.7 kmh W 9.2 mph14.8 kmh 29.71 in1006.1 mb 0.00 in0.0 mm 0.00 in/hr0.0 mm/hr 0.00 in0.0 mm
02:00 PM 81.7°F27.6°C 39.2°F4.0°C 22% 7.1 mph W11.4 kmh W 11.4 mph18.3 kmh 29.70 in1005.8 mb 0.00 in0.0 mm 0.00 in/hr0.0 mm/hr 0.00 in0.0 mm
02:05 PM 81.7°F27.6°C 40.3°F4.6°C 23% 7.7 mph WNW12.4 kmh WNW 11.4 mph18.3 kmh 29.71 in1006.1 mb 0.00 in0.0 mm 0.00 in/hr0.0 mm/hr 0.00 in0.0 mm
02:10 PM 82.9°F28.3°C 42.5°F5.8°C 24% 6.0 mph W9.7 kmh W 9.8 mph15.8 kmh 29.70 in1005.8 mb 0.00 in0.0 mm 0.00 in/hr0.0 mm/hr 0.00 in0.0 mm
02:15 PM 83.5°F28.6°C 41.8°F5.4°C 23% 4.2 mph SW6.8 kmh SW 6.9 mph11.1 kmh 29.70 in1005.8 mb 0.00 in0.0 mm 0.00 in/hr0.0 mm/hr 0.00 in0.0 mm
02:20 PM 84.0°F28.9°C 42.3°F5.7°C 23% 4.1 mph S6.6 kmh S 9.2 mph14.8 kmh 29.70 in1005.8 mb 0.00 in0.0 mm 0.00 in/hr0.0 mm/hr 0.00 in0.0 mm
02:25 PM 82.9°F28.3°C 39.0°F3.9°C 21% 5.7 mph W9.2 kmh W 9.2 mph14.8 kmh 29.69 in1005.4 mb 0.00 in0.0 mm 0.00 in/hr0.0 mm/hr 0.00 in0.0 mm
02:30 PM 81.7°F27.6°C 39.2°F4.0°C 22% 7.4 mph NW11.9 kmh NW 9.8 mph15.8 kmh 29.70 in1005.8 mb 0.00 in0.0 mm 0.00 in/hr0.0 mm/hr 0.00 in0.0 mm
02:35 PM 81.1°F27.3°C 38.7°F3.7°C 22% 8.6 mph NW13.8 kmh NW 10.7 mph17.2 kmh 29.70 in1005.8 mb 0.00 in0.0 mm 0.00 in/hr0.0 mm/hr 0.00 in0.0 mm
02:40 PM 82.4°F28.0°C 42.0°F5.6°C 24% 7.4 mph WNW11.9 kmh WNW 10.7 mph17.2 kmh 29.70 in1005.8 mb 0.00 in0.0 mm 0.00 in/hr0.0 mm/hr 0.00 in0.0 mm
02:45 PM 83.3°F28.5°C 39.3°F4.1°C 21% 5.5 mph WSW8.9 kmh WSW 8.3 mph13.4 kmh 29.69 in1005.4 mb 0.00 in0.0 mm 0.00 in/hr0.0 mm/hr 0.00 in0.0 mm
02:50 PM 83.8°F28.8°C 41.0°F5.0°C 22% 5.0 mph SW8.0 kmh SW 8.3 mph13.4 kmh 29.69 in1005.4 mb 0.00 in0.0 mm 0.00 in/hr0.0 mm/hr 0.00 in0.0 mm
02:55 PM 84.2°F29.0°C 42.4°F5.8°C 23% 5.2 mph SSE8.4 kmh SSE 6.9 mph11.1 kmh 29.69 in1005.4 mb 0.00 in0.0 mm 0.00 in/hr0.0 mm/hr 0.00 in0.0 mm
03:00 PM 83.8°F28.8°C 39.8°F4.3°C 21% 4.9 mph S7.9 kmh S 6.9 mph11.1 kmh 29.70 in1005.8 mb 0.00 in0.0 mm 0.00 in/hr0.0 mm/hr 0.00 in0.0 mm
03:05 PM 83.7°F28.7°C 38.4°F3.6°C 20% 4.8 mph WNW7.7 kmh WNW 8.3 mph13.4 kmh 29.69 in1005.4 mb 0.00 in0.0 mm 0.00 in/hr0.0 mm/hr 0.00 in0.0 mm
03:10 PM 83.5°F28.6°C 38.2°F3.4°C 20% 6.2 mph W10.0 kmh W 12.1 mph19.5 kmh 29.69 in1005.4 mb 0.00 in0.0 mm 0.00 in/hr0.0 mm/hr 0.00 in0.0 mm
03:15 PM 83.8°F28.8°C 41.0°F5.0°C 22% 5.3 mph SW8.5 kmh SW 12.1 mph19.5 kmh 29.68 in1005.1 mb 0.00 in0.0 mm 0.00 in/hr0.0 mm/hr 0.00 in0.0 mm
03:20 PM 84.0°F28.9°C 37.4°F3.0°C 19% 5.3 mph W8.5 kmh W 10.7 mph17.2 kmh 29.68 in1005.1 mb 0.00 in0.0 mm 0.00 in/hr0.0 mm/hr 0.00 in0.0 mm
03:25 PM 83.5°F28.6°C 35.6°F2.0°C 18% 7.8 mph W12.6 kmh W 10.7 mph17.2 kmh 29.68 in1005.1 mb 0.00 in0.0 mm 0.00 in/hr0.0 mm/hr 0.00 in0.0 mm
03:30 PM 82.9°F28.3°C 37.8°F3.2°C 20% 7.1 mph WSW11.4 kmh WSW 10.7 mph17.2 kmh 29.68 in1005.1 mb 0.00 in0.0 mm 0.00 in/hr0.0 mm/hr 0.00 in0.0 mm
03:35 PM 81.7°F27.6°C 35.5°F1.9°C 19% 6.4 mph NW10.3 kmh NW 9.8 mph15.8 kmh 29.68 in1005.1 mb 0.00 in0.0 mm 0.00 in/hr0.0 mm/hr 0.00 in0.0 mm
03:40 PM 81.5°F27.5°C 39.0°F3.9°C 22% 6.4 mph NW10.3 kmh NW 9.8 mph15.8 kmh 29.68 in1005.1 mb 0.00 in0.0 mm 0.00 in/hr0.0 mm/hr 0.00 in0.0 mm
03:45 PM 81.1°F27.3°C 37.5°F3.1°C 21% 6.7 mph NW10.8 kmh NW 11.4 mph18.3 kmh 29.68 in1005.1 mb 0.00 in0.0 mm 0.00 in/hr0.0 mm/hr 0.00 in0.0 mm
03:50 PM 82.0°F27.8°C 35.8°F2.1°C 19% 7.2 mph NW11.6 kmh NW 11.4 mph18.3 kmh 29.68 in1005.1 mb 0.00 in0.0 mm 0.00 in/hr0.0 mm/hr 0.00 in0.0 mm
03:55 PM 81.7°F27.6°C 35.5°F1.9°C 19% 7.7 mph WNW12.4 kmh WNW 11.4 mph18.3 kmh 29.68 in1005.1 mb 0.00 in0.0 mm 0.00 in/hr0.0 mm/hr 0.00 in0.0 mm
04:00 PM 81.3°F27.4°C 33.8°F1.0°C 18% 9.2 mph W14.8 kmh W 12.1 mph19.5 kmh 29.68 in1005.1 mb 0.00 in0.0 mm 0.00 in/hr0.0 mm/hr 0.00 in0.0 mm
04:05 PM 80.6°F27.0°C 35.9°F2.2°C 20% 8.0 mph WNW12.9 kmh WNW 12.1 mph19.5 kmh 29.68 in1005.1 mb 0.00 in0.0 mm 0.00 in/hr0.0 mm/hr 0.00 in0.0 mm
04:10 PM 80.4°F26.9°C 35.7°F2.1°C 20% 7.1 mph NW11.4 kmh NW 11.4 mph18.3 kmh 29.68 in1005.1 mb 0.00 in0.0 mm 0.00 in/hr0.0 mm/hr 0.00 in0.0 mm
04:15 PM 80.8°F27.1°C 36.0°F2.2°C 20% 6.6 mph NW10.6 kmh NW 11.4 mph18.3 kmh 29.68 in1005.1 mb 0.00 in0.0 mm 0.00 in/hr0.0 mm/hr 0.00 in0.0 mm
04:20 PM 79.7°F26.5°C 35.1°F1.7°C 20% 5.8 mph W9.3 kmh W 9.2 mph14.8 kmh 29.68 in1005.1 mb 0.00 in0.0 mm 0.00 in/hr0.0 mm/hr 0.00 in0.0 mm
04:25 PM 80.2°F26.8°C 36.8°F2.7°C 21% 4.6 mph WSW7.4 kmh WSW 9.2 mph14.8 kmh 29.67 in1004.7 mb 0.00 in0.0 mm 0.00 in/hr0.0 mm/hr 0.00 in0.0 mm
04:30 PM 81.3°F27.4°C 37.7°F3.2°C 21% 3.2 mph WSW5.1 kmh WSW 5.4 mph8.7 kmh 29.68 in1005.1 mb 0.00 in0.0 mm 0.00 in/hr0.0 mm/hr 0.00 in0.0 mm
04:35 PM 82.2°F27.9°C 38.4°F3.6°C 21% 3.0 mph SW4.8 kmh SW 5.4 mph8.7 kmh 29.67 in1004.7 mb 0.00 in0.0 mm 0.00 in/hr0.0 mm/hr 0.00 in0.0 mm
04:40 PM 82.4°F28.0°C 37.3°F2.9°C 20% 3.3 mph SW5.3 kmh SW 6.0 mph9.7 kmh 29.68 in1005.1 mb 0.00 in0.0 mm 0.00 in/hr0.0 mm/hr 0.00 in0.0 mm
04:45 PM 82.9°F28.3°C 39.0°F3.9°C 21% 3.8 mph WSW6.1 kmh WSW 6.0 mph9.7 kmh 29.68 in1005.1 mb 0.00 in0.0 mm 0.00 in/hr0.0 mm/hr 0.00 in0.0 mm
04:50 PM 83.1°F28.4°C 37.9°F3.3°C 20% 3.6 mph NW5.8 kmh NW 6.0 mph9.7 kmh 29.67 in1004.7 mb 0.00 in0.0 mm 0.00 in/hr0.0 mm/hr 0.00 in0.0 mm
04:55 PM 83.5°F28.6°C 38.2°F3.4°C 20% 3.4 mph SSW5.5 kmh SSW 6.0 mph9.7 kmh 29.67 in1004.7 mb 0.00 in0.0 mm 0.00 in/hr0.0 mm/hr 0.00 in0.0 mm
05:00 PM 83.3°F28.5°C 36.8°F2.7°C 19% 3.1 mph SW5.0 kmh SW 6.0 mph9.7 kmh 29.67 in1004.7 mb 0.00 in0.0 mm 0.00 in/hr0.0 mm/hr 0.00 in0.0 mm
05:05 PM 82.2°F27.9°C 35.9°F2.2°C 19% 4.4 mph W7.1 kmh W 7.6 mph12.2 kmh 29.67 in1004.7 mb 0.00 in0.0 mm 0.00 in/hr0.0 mm/hr 0.00 in0.0 mm
05:10 PM 81.5°F27.5°C 36.6°F2.6°C 20% 6.8 mph WNW10.9 kmh WNW 9.8 mph15.8 kmh 29.67 in1004.7 mb 0.00 in0.0 mm 0.00 in/hr0.0 mm/hr 0.00 in0.0 mm
05:15 PM 81.9°F27.7°C 38.1°F3.4°C 21% 5.4 mph W8.7 kmh W 9.8 mph15.8 kmh 29.66 in1004.4 mb 0.00 in0.0 mm 0.00 in/hr0.0 mm/hr 0.00 in0.0 mm
05:20 PM 81.9°F27.7°C 35.6°F2.0°C 19% 4.3 mph W6.9 kmh W 6.9 mph11.1 kmh 29.67 in1004.7 mb 0.00 in0.0 mm 0.00 in/hr0.0 mm/hr 0.00 in0.0 mm
05:25 PM 80.6°F27.0°C 34.6°F1.4°C 19% 5.5 mph NW8.9 kmh NW 7.6 mph12.2 kmh 29.67 in1004.7 mb 0.00 in0.0 mm 0.00 in/hr0.0 mm/hr 0.00 in0.0 mm
05:30 PM 79.0°F26.1°C 34.5°F1.4°C 20% 6.5 mph NW10.5 kmh NW 8.3 mph13.4 kmh 29.67 in1004.7 mb 0.00 in0.0 mm 0.00 in/hr0.0 mm/hr 0.00 in0.0 mm
05:35 PM 78.1°F25.6°C 35.0°F1.7°C 21% 7.3 mph NW11.7 kmh NW 8.3 mph13.4 kmh 29.68 in1005.1 mb 0.00 in0.0 mm 0.00 in/hr0.0 mm/hr 0.00 in0.0 mm
05:40 PM 77.4°F25.2°C 34.4°F1.3°C 21% 7.0 mph NW11.3 kmh NW 9.2 mph14.8 kmh 29.68 in1005.1 mb 0.00 in0.0 mm 0.00 in/hr0.0 mm/hr 0.00 in0.0 mm
05:45 PM 77.0°F25.0°C 34.1°F1.2°C 21% 7.1 mph NW11.4 kmh NW 9.2 mph14.8 kmh 29.68 in1005.1 mb 0.00 in0.0 mm 0.00 in/hr0.0 mm/hr 0.00 in0.0 mm
05:50 PM 77.0°F25.0°C 34.1°F1.2°C 21% 7.0 mph WNW11.3 kmh WNW 9.2 mph14.8 kmh 29.68 in1005.1 mb 0.00 in0.0 mm 0.00 in/hr0.0 mm/hr 0.00 in0.0 mm
05:55 PM 76.8°F24.9°C 34.0°F1.1°C 21% 6.2 mph WNW10.0 kmh WNW 8.3 mph13.4 kmh 29.68 in1005.1 mb 0.00 in0.0 mm 0.00 in/hr0.0 mm/hr 0.00 in0.0 mm
06:00 PM 76.6°F24.8°C 35.0°F1.7°C 22% 5.6 mph W9.0 kmh W 8.3 mph13.4 kmh 29.68 in1005.1 mb 0.00 in0.0 mm 0.00 in/hr0.0 mm/hr 0.00 in0.0 mm
06:05 PM 76.3°F24.6°C 34.7°F1.5°C 22% 6.0 mph WNW9.7 kmh WNW 8.3 mph13.4 kmh 29.68 in1005.1 mb 0.00 in0.0 mm 0.00 in/hr0.0 mm/hr 0.00 in0.0 mm
06:10 PM 75.9°F24.4°C 34.4°F1.3°C 22% 6.8 mph WNW10.9 kmh WNW 8.3 mph13.4 kmh 29.68 in1005.1 mb 0.00 in0.0 mm 0.00 in/hr0.0 mm/hr 0.00 in0.0 mm
06:15 PM 75.6°F24.2°C 35.2°F1.8°C 23% 5.9 mph W9.5 kmh W 7.6 mph12.2 kmh 29.69 in1005.4 mb 0.00 in0.0 mm 0.00 in/hr0.0 mm/hr 0.00 in0.0 mm
06:20 PM 75.2°F24.0°C 34.9°F1.6°C 23% 5.1 mph W8.2 kmh W 8.3 mph13.4 kmh 29.69 in1005.4 mb 0.00 in0.0 mm 0.00 in/hr0.0 mm/hr 0.00 in0.0 mm
06:25 PM 74.8°F23.8°C 34.6°F1.4°C 23% 5.4 mph WNW8.7 kmh WNW 8.3 mph13.4 kmh 29.69 in1005.4 mb 0.00 in0.0 mm 0.00 in/hr0.0 mm/hr 0.00 in0.0 mm
06:30 PM 74.7°F23.7°C 35.5°F1.9°C 24% 5.7 mph W9.2 kmh W 7.6 mph12.2 kmh 29.69 in1005.4 mb 0.00 in0.0 mm 0.00 in/hr0.0 mm/hr 0.00 in0.0 mm
06:35 PM 74.3°F23.5°C 35.2°F1.8°C 24% 5.0 mph WSW8.0 kmh WSW 7.6 mph12.2 kmh 29.69 in1005.4 mb 0.00 in0.0 mm 0.00 in/hr0.0 mm/hr 0.00 in0.0 mm
06:40 PM 73.9°F23.3°C 34.9°F1.6°C 24% 4.6 mph W7.4 kmh W 6.9 mph11.1 kmh 29.69 in1005.4 mb 0.00 in0.0 mm 0.00 in/hr0.0 mm/hr 0.00 in0.0 mm
06:45 PM 73.8°F23.2°C 34.8°F1.6°C 24% 5.4 mph NW8.7 kmh NW 6.9 mph11.1 kmh 29.70 in1005.8 mb 0.00 in0.0 mm 0.00 in/hr0.0 mm/hr 0.00 in0.0 mm
06:50 PM 73.8°F23.2°C 35.8°F2.1°C 25% 5.3 mph W8.5 kmh W 6.9 mph11.1 kmh 29.70 in1005.8 mb 0.00 in0.0 mm 0.00 in/hr0.0 mm/hr 0.00 in0.0 mm
06:55 PM 73.4°F23.0°C 35.5°F1.9°C 25% 5.5 mph W8.9 kmh W 7.6 mph12.2 kmh 29.70 in1005.8 mb 0.00 in0.0 mm 0.00 in/hr0.0 mm/hr 0.00 in0.0 mm
07:00 PM 73.0°F22.8°C 36.2°F2.3°C 26% 5.0 mph W8.0 kmh W 7.6 mph12.2 kmh 29.70 in1005.8 mb 0.00 in0.0 mm 0.00 in/hr0.0 mm/hr 0.00 in0.0 mm
07:05 PM 72.9°F22.7°C 37.0°F2.8°C 27% 3.8 mph W6.1 kmh W 5.4 mph8.7 kmh 29.71 in1006.1 mb 0.00 in0.0 mm 0.00 in/hr0.0 mm/hr 0.00 in0.0 mm
07:10 PM 72.7°F22.6°C 36.8°F2.7°C 27% 3.4 mph WSW5.5 kmh WSW 4.5 mph7.2 kmh 29.70 in1005.8 mb 0.00 in0.0 mm 0.00 in/hr0.0 mm/hr 0.00 in0.0 mm
07:15 PM 72.1°F22.3°C 36.3°F2.4°C 27% 3.8 mph W6.1 kmh W 4.5 mph7.2 kmh 29.71 in1006.1 mb 0.00 in0.0 mm 0.00 in/hr0.0 mm/hr 0.00 in0.0 mm
07:20 PM 72.0°F22.2°C 36.2°F2.3°C 27% 4.0 mph W6.4 kmh W 4.5 mph7.2 kmh 29.71 in1006.1 mb 0.00 in0.0 mm 0.00 in/hr0.0 mm/hr 0.00 in0.0 mm
07:25 PM 71.4°F21.9°C 36.6°F2.6°C 28% 3.5 mph W5.6 kmh W 4.5 mph7.2 kmh 29.72 in1006.4 mb 0.00 in0.0 mm 0.00 in/hr0.0 mm/hr 0.00 in0.0 mm
07:30 PM 71.2°F21.8°C 36.5°F2.5°C 28% 3.3 mph W5.3 kmh W 4.5 mph7.2 kmh 29.72 in1006.4 mb 0.00 in0.0 mm 0.00 in/hr0.0 mm/hr 0.00 in0.0 mm
07:35 PM 70.9°F21.6°C 37.1°F2.8°C 29% 2.4 mph WSW3.9 kmh WSW 4.5 mph7.2 kmh 29.71 in1006.1 mb 0.00 in0.0 mm 0.00 in/hr0.0 mm/hr 0.00 in0.0 mm
07:40 PM 70.5°F21.4°C 37.6°F3.1°C 30% 1.2 mph WSW1.9 kmh WSW 3.1 mph5.0 kmh 29.71 in1006.1 mb 0.00 in0.0 mm 0.00 in/hr0.0 mm/hr 0.00 in0.0 mm
07:45 PM 70.2°F21.2°C 37.3°F2.9°C 30% 1.3 mph WSW2.1 kmh WSW 2.2 mph3.5 kmh 29.72 in1006.4 mb 0.00 in0.0 mm 0.00 in/hr0.0 mm/hr 0.00 in0.0 mm
07:50 PM 69.6°F20.9°C 37.7°F3.2°C 31% 1.5 mph W2.4 kmh W 2.2 mph3.5 kmh 29.72 in1006.4 mb 0.00 in0.0 mm 0.00 in/hr0.0 mm/hr 0.00 in0.0 mm
07:55 PM 69.3°F20.7°C 37.4°F3.0°C 31% 2.1 mph WSW3.4 kmh WSW 4.5 mph7.2 kmh 29.72 in1006.4 mb 0.00 in0.0 mm 0.00 in/hr0.0 mm/hr 0.00 in0.0 mm
08:00 PM 69.1°F20.6°C 37.2°F2.9°C 31% 2.1 mph WSW3.4 kmh WSW 4.5 mph7.2 kmh 29.72 in1006.4 mb 0.00 in0.0 mm 0.00 in/hr0.0 mm/hr 0.00 in0.0 mm
08:05 PM 68.9°F20.5°C 37.0°F2.8°C 31% 1.4 mph WSW2.3 kmh WSW 3.8 mph6.1 kmh 29.72 in1006.4 mb 0.00 in0.0 mm 0.00 in/hr0.0 mm/hr 0.00 in0.0 mm
08:10 PM 68.5°F20.3°C 36.7°F2.6°C 31% 1.3 mph WSW2.1 kmh WSW 3.8 mph6.1 kmh 29.72 in1006.4 mb 0.00 in0.0 mm 0.00 in/hr0.0 mm/hr 0.00 in0.0 mm
08:15 PM 68.5°F20.3°C 36.7°F2.6°C 31% 1.5 mph WSW2.4 kmh WSW 3.8 mph6.1 kmh 29.73 in1006.8 mb 0.00 in0.0 mm 0.00 in/hr0.0 mm/hr 0.00 in0.0 mm
08:20 PM 68.5°F20.3°C 36.7°F2.6°C 31% 1.9 mph WSW3.1 kmh WSW 3.8 mph6.1 kmh 29.73 in1006.8 mb 0.00 in0.0 mm 0.00 in/hr0.0 mm/hr 0.00 in0.0 mm
08:25 PM 68.4°F20.2°C 35.7°F2.1°C 30% 2.0 mph WSW3.2 kmh WSW 3.8 mph6.1 kmh 29.73 in1006.8 mb 0.00 in0.0 mm 0.00 in/hr0.0 mm/hr 0.00 in0.0 mm
08:30 PM 68.5°F20.3°C 35.9°F2.2°C 30% 1.9 mph WSW3.1 kmh WSW 3.1 mph5.0 kmh 29.73 in1006.8 mb 0.00 in0.0 mm 0.00 in/hr0.0 mm/hr 0.00 in0.0 mm
08:35 PM 68.5°F20.3°C 36.7°F2.6°C 31% 2.0 mph WSW3.2 kmh WSW 3.1 mph5.0 kmh 29.73 in1006.8 mb 0.00 in0.0 mm 0.00 in/hr0.0 mm/hr 0.00 in0.0 mm
08:40 PM 68.4°F20.2°C 35.7°F2.1°C 30% 2.4 mph WSW3.9 kmh WSW 3.8 mph6.1 kmh 29.74 in1007.1 mb 0.00 in0.0 mm 0.00 in/hr0.0 mm/hr 0.00 in0.0 mm
08:45 PM 67.8°F19.9°C 36.9°F2.7°C 32% 3.5 mph WNW5.6 kmh WNW 5.4 mph8.7 kmh 29.73 in1006.8 mb 0.00 in0.0 mm 0.00 in/hr0.0 mm/hr 0.00 in0.0 mm
08:50 PM 67.6°F19.8°C 36.8°F2.7°C 32% 3.7 mph NW6.0 kmh NW 5.4 mph8.7 kmh 29.74 in1007.1 mb 0.00 in0.0 mm 0.00 in/hr0.0 mm/hr 0.00 in0.0 mm
08:55 PM 67.6°F19.8°C 36.8°F2.7°C 32% 2.8 mph WNW4.5 kmh WNW 4.5 mph7.2 kmh 29.74 in1007.1 mb 0.00 in0.0 mm 0.00 in/hr0.0 mm/hr 0.00 in0.0 mm
09:00 PM 67.5°F19.7°C 37.4°F3.0°C 33% 1.6 mph W2.6 kmh W 3.8 mph6.1 kmh 29.74 in1007.1 mb 0.00 in0.0 mm 0.00 in/hr0.0 mm/hr 0.00 in0.0 mm
09:05 PM 67.5°F19.7°C 37.4°F3.0°C 33% 1.0 mph WSW1.6 kmh WSW 3.1 mph5.0 kmh 29.73 in1006.8 mb 0.00 in0.0 mm 0.00 in/hr0.0 mm/hr 0.00 in0.0 mm
09:10 PM 67.3°F19.6°C 37.2°F2.9°C 33% 1.7 mph W2.7 kmh W 2.2 mph3.5 kmh 29.73 in1006.8 mb 0.00 in0.0 mm 0.00 in/hr0.0 mm/hr 0.00 in0.0 mm
09:15 PM 67.1°F19.5°C 37.1°F2.8°C 33% 2.3 mph W3.7 kmh W 3.1 mph5.0 kmh 29.73 in1006.8 mb 0.00 in0.0 mm 0.00 in/hr0.0 mm/hr 0.00 in0.0 mm
09:20 PM 66.6°F19.2°C 36.6°F2.6°C 33% 2.5 mph W4.0 kmh W 3.1 mph5.0 kmh 29.73 in1006.8 mb 0.00 in0.0 mm 0.00 in/hr0.0 mm/hr 0.00 in0.0 mm
09:25 PM 66.4°F19.1°C 36.4°F2.4°C 33% 2.8 mph W4.5 kmh W 4.5 mph7.2 kmh 29.73 in1006.8 mb 0.00 in0.0 mm 0.00 in/hr0.0 mm/hr 0.00 in0.0 mm
09:30 PM 66.0°F18.9°C 36.1°F2.3°C 33% 3.3 mph W5.3 kmh W 4.5 mph7.2 kmh 29.73 in1006.8 mb 0.00 in0.0 mm 0.00 in/hr0.0 mm/hr 0.00 in0.0 mm
09:35 PM 66.0°F18.9°C 36.9°F2.7°C 34% 2.8 mph W4.5 kmh W 4.5 mph7.2 kmh 29.73 in1006.8 mb 0.00 in0.0 mm 0.00 in/hr0.0 mm/hr 0.00 in0.0 mm
09:40 PM 65.8°F18.8°C 37.4°F3.0°C 35% 1.5 mph W2.4 kmh W 3.1 mph5.0 kmh 29.74 in1007.1 mb 0.00 in0.0 mm 0.00 in/hr0.0 mm/hr 0.00 in0.0 mm
09:45 PM 65.7°F18.7°C 37.3°F2.9°C 35% 0.3 mph W0.5 kmh W 1.6 mph2.6 kmh 29.74 in1007.1 mb 0.00 in0.0 mm 0.00 in/hr0.0 mm/hr 0.00 in0.0 mm
09:50 PM 65.3°F18.5°C 37.0°F2.8°C 35% 0.1 mph NW0.2 kmh NW 1.6 mph2.6 kmh 29.73 in1006.8 mb 0.00 in0.0 mm 0.00 in/hr0.0 mm/hr 0.00 in0.0 mm
09:55 PM 65.1°F18.4°C 37.5°F3.1°C 36% 1.4 mph WNW2.3 kmh WNW 3.8 mph6.1 kmh 29.74 in1007.1 mb 0.00 in0.0 mm 0.00 in/hr0.0 mm/hr 0.00 in0.0 mm
10:00 PM 64.9°F18.3°C 38.1°F3.4°C 37% 2.0 mph NW3.2 kmh NW 3.8 mph6.1 kmh 29.73 in1006.8 mb 0.00 in0.0 mm 0.00 in/hr0.0 mm/hr 0.00 in0.0 mm
10:05 PM 64.9°F18.3°C 38.1°F3.4°C 37% 1.7 mph NW2.7 kmh NW 2.2 mph3.5 kmh 29.73 in1006.8 mb 0.00 in0.0 mm 0.00 in/hr0.0 mm/hr 0.00 in0.0 mm
10:10 PM 64.6°F18.1°C 38.4°F3.6°C 38% 2.3 mph NW3.7 kmh NW 3.1 mph5.0 kmh 29.73 in1006.8 mb 0.00 in0.0 mm 0.00 in/hr0.0 mm/hr 0.00 in0.0 mm
10:15 PM 64.4°F18.0°C 38.3°F3.5°C 38% 1.9 mph NW3.1 kmh NW 3.1 mph5.0 kmh 29.73 in1006.8 mb 0.00 in0.0 mm 0.00 in/hr0.0 mm/hr 0.00 in0.0 mm
10:20 PM 64.4°F18.0°C 38.9°F3.8°C 39% 1.5 mph SSW2.4 kmh SSW 2.2 mph3.5 kmh 29.73 in1006.8 mb 0.00 in0.0 mm 0.00 in/hr0.0 mm/hr 0.00 in0.0 mm
10:25 PM 64.0°F17.8°C 39.2°F4.0°C 40% 1.8 mph S2.9 kmh S 2.2 mph3.5 kmh 29.73 in1006.8 mb 0.00 in0.0 mm 0.00 in/hr0.0 mm/hr 0.00 in0.0 mm
10:30 PM 63.9°F17.7°C 39.7°F4.3°C 41% 1.7 mph S2.7 kmh S 2.2 mph3.5 kmh 29.73 in1006.8 mb 0.00 in0.0 mm 0.00 in/hr0.0 mm/hr 0.00 in0.0 mm
10:35 PM 63.3°F17.4°C 39.2°F4.0°C 41% 1.9 mph S3.1 kmh S 3.1 mph5.0 kmh 29.73 in1006.8 mb 0.00 in0.0 mm 0.00 in/hr0.0 mm/hr 0.00 in0.0 mm
10:40 PM 63.1°F17.3°C 39.7°F4.3°C 42% 1.2 mph SSW1.9 kmh SSW 3.1 mph5.0 kmh 29.73 in1006.8 mb 0.00 in0.0 mm 0.00 in/hr0.0 mm/hr 0.00 in0.0 mm
10:45 PM 62.8°F17.1°C 38.7°F3.7°C 41% 0.4 mph SW0.6 kmh SW 2.2 mph3.5 kmh 29.73 in1006.8 mb 0.00 in0.0 mm 0.00 in/hr0.0 mm/hr 0.00 in0.0 mm
10:50 PM 62.6°F17.0°C 39.2°F4.0°C 42% 1.2 mph S1.9 kmh S 3.1 mph5.0 kmh 29.73 in1006.8 mb 0.00 in0.0 mm 0.00 in/hr0.0 mm/hr 0.00 in0.0 mm
10:55 PM 62.6°F17.0°C 39.2°F4.0°C 42% 1.9 mph S3.1 kmh S 3.1 mph5.0 kmh 29.73 in1006.8 mb 0.00 in0.0 mm 0.00 in/hr0.0 mm/hr 0.00 in0.0 mm
11:00 PM 62.4°F16.9°C 39.0°F3.9°C 42% 1.4 mph SSE2.3 kmh SSE 2.2 mph3.5 kmh 29.73 in1006.8 mb 0.00 in0.0 mm 0.00 in/hr0.0 mm/hr 0.00 in0.0 mm
11:05 PM 62.1°F16.7°C 39.3°F4.1°C 43% 1.0 mph SE1.6 kmh SE 2.2 mph3.5 kmh 29.73 in1006.8 mb 0.00 in0.0 mm 0.00 in/hr0.0 mm/hr 0.00 in0.0 mm
11:10 PM 61.9°F16.6°C 39.2°F4.0°C 43% 1.4 mph SSE2.3 kmh SSE 2.2 mph3.5 kmh 29.73 in1006.8 mb 0.00 in0.0 mm 0.00 in/hr0.0 mm/hr 0.00 in0.0 mm
11:15 PM 61.5°F16.4°C 39.4°F4.1°C 44% 1.7 mph S2.7 kmh S 2.2 mph3.5 kmh 29.72 in1006.4 mb 0.00 in0.0 mm 0.00 in/hr0.0 mm/hr 0.00 in0.0 mm
11:20 PM 61.2°F16.2°C 39.1°F3.9°C 44% 1.6 mph S2.6 kmh S 2.2 mph3.5 kmh 29.73 in1006.8 mb 0.00 in0.0 mm 0.00 in/hr0.0 mm/hr 0.00 in0.0 mm
11:25 PM 61.2°F16.2°C 39.7°F4.3°C 45% 1.5 mph S2.4 kmh S 2.2 mph3.5 kmh 29.73 in1006.8 mb 0.00 in0.0 mm 0.00 in/hr0.0 mm/hr 0.00 in0.0 mm
11:30 PM 60.8°F16.0°C 39.3°F4.1°C 45% 0.9 mph S1.4 kmh S 2.2 mph3.5 kmh 29.73 in1006.8 mb 0.00 in0.0 mm 0.00 in/hr0.0 mm/hr 0.00 in0.0 mm
11:35 PM 60.8°F16.0°C 39.9°F4.4°C 46% 0.7 mph S1.1 kmh S 1.6 mph2.6 kmh 29.73 in1006.8 mb 0.00 in0.0 mm 0.00 in/hr0.0 mm/hr 0.00 in0.0 mm
11:40 PM 60.8°F16.0°C 39.9°F4.4°C 46% 1.2 mph S1.9 kmh S 1.6 mph2.6 kmh 29.73 in1006.8 mb 0.00 in0.0 mm 0.00 in/hr0.0 mm/hr 0.00 in0.0 mm
11:45 PM 60.6°F15.9°C 40.3°F4.6°C 47% 1.3 mph S2.1 kmh S 1.6 mph2.6 kmh 29.72 in1006.4 mb 0.00 in0.0 mm 0.00 in/hr0.0 mm/hr 0.00 in0.0 mm
11:50 PM 60.3°F15.7°C 40.0°F4.4°C 47% 1.4 mph S2.3 kmh S 2.2 mph3.5 kmh 29.72 in1006.4 mb 0.00 in0.0 mm 0.00 in/hr0.0 mm/hr 0.00 in0.0 mm
11:55 PM 59.9°F15.5°C 39.6°F4.2°C 47% 0.9 mph S1.4 kmh S 2.2 mph3.5 kmh 29.72 in1006.4 mb 0.00 in0.0 mm 0.00 in/hr0.0 mm/hr 0.00 in0.0 mm